sensor_id;sensor_type;location;lat;lon;timestamp;pressure;altitude;pressure_sealevel;temperature;humidity
42621;BME280;28252;53.336;-6.298;2023-04-03T00:00:14;102382.31;;;23.33;100.00
42621;BME280;28252;53.336;-6.298;2023-04-03T00:00:49;102371.44;;;23.33;100.00
42621;BME280;28252;53.336;-6.298;2023-04-03T00:01:25;102366.00;;;23.33;100.00
42621;BME280;28252;53.336;-6.298;2023-04-03T00:02:00;102372.31;;;23.33;100.00
42621;BME280;28252;53.336;-6.298;2023-04-03T00:02:33;102367.75;;;23.34;100.00
42621;BME280;28252;53.336;-6.298;2023-04-03T00:03:12;102368.59;;;23.34;100.00
42621;BME280;28252;53.336;-6.298;2023-04-03T00:03:43;102372.19;;;23.35;100.00
42621;BME280;28252;53.336;-6.298;2023-04-03T00:04:14;102369.47;;;23.35;100.00
42621;BME280;28252;53.336;-6.298;2023-04-03T00:04:48;102368.59;;;23.34;100.00
42621;BME280;28252;53.336;-6.298;2023-04-03T00:05:24;102366.75;;;23.35;100.00
42621;BME280;28252;53.336;-6.298;2023-04-03T00:06:02;102359.44;;;23.35;100.00
42621;BME280;28252;53.336;-6.298;2023-04-03T00:06:33;102366.59;;;23.36;100.00
42621;BME280;28252;53.336;-6.298;2023-04-03T00:07:08;102360.28;;;23.36;100.00
42621;BME280;28252;53.336;-6.298;2023-04-03T00:07:43;102360.28;;;23.36;100.00
42621;BME280;28252;53.336;-6.298;2023-04-03T00:08:16;102358.44;;;23.36;100.00
42621;BME280;28252;53.336;-6.298;2023-04-03T00:08:47;102353.00;;;23.36;100.00
42621;BME280;28252;53.336;-6.298;2023-04-03T00:09:20;102362.00;;;23.37;100.00
42621;BME280;28252;53.336;-6.298;2023-04-03T00:09:51;102362.00;;;23.37;100.00
42621;BME280;28252;53.336;-6.298;2023-04-03T00:10:28;102357.41;;;23.37;100.00
42621;BME280;28252;53.336;-6.298;2023-04-03T00:11:06;102353.69;;;23.38;100.00
42621;BME280;28252;53.336;-6.298;2023-04-03T00:11:41;102358.25;;;23.38;100.00
42621;BME280;28252;53.336;-6.298;2023-04-03T00:12:14;102348.25;;;23.38;100.00
42621;BME280;28252;53.336;-6.298;2023-04-03T00:12:53;102352.81;;;23.38;100.00
42621;BME280;28252;53.336;-6.298;2023-04-03T00:13:27;102352.81;;;23.38;100.00
42621;BME280;28252;53.336;-6.298;2023-04-03T00:14:00;102346.38;;;23.39;100.00
42621;BME280;28252;53.336;-6.298;2023-04-03T00:14:38;102350.81;;;23.40;100.00
42621;BME280;28252;53.336;-6.298;2023-04-03T00:15:09;102350.81;;;23.40;100.00
42621;BME280;28252;53.336;-6.298;2023-04-03T00:15:45;102344.50;;;23.39;100.00
42621;BME280;28252;53.336;-6.298;2023-04-03T00:16:19;102356.25;;;23.40;100.00
42621;BME280;28252;53.336;-6.298;2023-04-03T00:16:52;102351.69;;;23.40;100.00
42621;BME280;28252;53.336;-6.298;2023-04-03T00:17:25;102349.81;;;23.41;100.00
42621;BME280;28252;53.336;-6.298;2023-04-03T00:17:58;102350.81;;;23.40;100.00
42621;BME280;28252;53.336;-6.298;2023-04-03T00:18:35;102349.81;;;23.41;100.00
42621;BME280;28252;53.336;-6.298;2023-04-03T00:19:10;102349.81;;;23.41;100.00
42621;BME280;28252;53.336;-6.298;2023-04-03T00:19:44;102348.97;;;23.40;100.00
42621;BME280;28252;53.336;-6.298;2023-04-03T00:20:18;102347.97;;;23.41;100.00
42621;BME280;28252;53.336;-6.298;2023-04-03T00:20:51;102351.69;;;23.40;100.00
42621;BME280;28252;53.336;-6.298;2023-04-03T00:21:27;102347.09;;;23.41;100.00
42621;BME280;28252;53.336;-6.298;2023-04-03T00:22:01;102344.38;;;23.41;100.00
42621;BME280;28252;53.336;-6.298;2023-04-03T00:22:34;102347.09;;;23.41;100.00
42621;BME280;28252;53.336;-6.298;2023-04-03T00:23:12;102346.09;;;23.42;100.00
42621;BME280;28252;53.336;-6.298;2023-04-03T00:23:48;102342.53;;;23.41;100.00
42621;BME280;28252;53.336;-6.298;2023-04-03T00:24:21;102341.66;;;23.41;100.00
42621;BME280;28252;53.336;-6.298;2023-04-03T00:24:57;102349.66;;;23.42;100.00
42621;BME280;28252;53.336;-6.298;2023-04-03T00:25:31;102345.09;;;23.43;100.00
42621;BME280;28252;53.336;-6.298;2023-04-03T00:26:07;102338.78;;;23.42;100.00
42621;BME280;28252;53.336;-6.298;2023-04-03T00:26:41;102345.09;;;23.43;100.00
42621;BME280;28252;53.336;-6.298;2023-04-03T00:27:18;102345.09;;;23.43;100.00
42621;BME280;28252;53.336;-6.298;2023-04-03T00:27:54;102340.66;;;23.42;100.00
42621;BME280;28252;53.336;-6.298;2023-04-03T00:28:29;102338.78;;;23.42;100.00
42621;BME280;28252;53.336;-6.298;2023-04-03T00:29:02;102341.50;;;23.42;100.00
42621;BME280;28252;53.336;-6.298;2023-04-03T00:29:36;102340.50;;;23.43;100.00
42621;BME280;28252;53.336;-6.298;2023-04-03T00:30:08;102338.78;;;23.42;100.00
42621;BME280;28252;53.336;-6.298;2023-04-03T00:30:42;102334.22;;;23.43;100.00
42621;BME280;28252;53.336;-6.298;2023-04-03T00:31:17;102340.50;;;23.43;100.00
42621;BME280;28252;53.336;-6.298;2023-04-03T00:31:50;102337.78;;;23.43;100.00
42621;BME280;28252;53.336;-6.298;2023-04-03T00:32:26;102330.47;;;23.44;100.00
42621;BME280;28252;53.336;-6.298;2023-04-03T00:33:02;102335.91;;;23.44;100.00
42621;BME280;28252;53.336;-6.298;2023-04-03T00:33:37;102329.63;;;23.43;100.00
42621;BME280;28252;53.336;-6.298;2023-04-03T00:34:13;102335.06;;;23.43;100.00
42621;BME280;28252;53.336;-6.298;2023-04-03T00:34:48;102327.75;;;23.44;100.00
42621;BME280;28252;53.336;-6.298;2023-04-03T00:35:23;102329.63;;;23.43;100.00
42621;BME280;28252;53.336;-6.298;2023-04-03T00:36:04;102325.88;;;23.44;100.00
42621;BME280;28252;53.336;-6.298;2023-04-03T00:36:38;102326.75;;;23.45;100.00
42621;BME280;28252;53.336;-6.298;2023-04-03T00:37:09;102319.59;;;23.44;100.00
42621;BME280;28252;53.336;-6.298;2023-04-03T00:37:42;102330.47;;;23.44;100.00
42621;BME280;28252;53.336;-6.298;2023-04-03T00:38:19;102324.03;;;23.45;100.00
42621;BME280;28252;53.336;-6.298;2023-04-03T00:38:53;102317.56;;;23.46;100.00
42621;BME280;28252;53.336;-6.298;2023-04-03T00:39:31;102325.72;;;23.46;100.00
42621;BME280;28252;53.336;-6.298;2023-04-03T00:40:02;102322.84;;;23.47;100.00
42621;BME280;28252;53.336;-6.298;2023-04-03T00:40:37;102328.28;;;23.47;100.00
42621;BME280;28252;53.336;-6.298;2023-04-03T00:41:08;102313.84;;;23.47;100.00
42621;BME280;28252;53.336;-6.298;2023-04-03T00:41:40;102314.69;;;23.47;100.00
42621;BME280;28252;53.336;-6.298;2023-04-03T00:42:13;102322.72;;;23.49;100.00
42621;BME280;28252;53.336;-6.298;2023-04-03T00:42:51;102317.28;;;23.49;100.00
42621;BME280;28252;53.336;-6.298;2023-04-03T00:43:30;102317.28;;;23.49;100.00
42621;BME280;28252;53.336;-6.298;2023-04-03T00:44:20;102318.13;;;23.49;100.00
42621;BME280;28252;53.336;-6.298;2023-04-03T00:45:29;102320.84;;;23.49;100.00
42621;BME280;28252;53.336;-6.298;2023-04-03T00:46:01;102315.59;;;23.48;100.00
42621;BME280;28252;53.336;-6.298;2023-04-03T00:46:34;102317.28;;;23.49;100.00
42621;BME280;28252;53.336;-6.298;2023-04-03T00:47:13;102317.28;;;23.49;100.00
42621;BME280;28252;53.336;-6.298;2023-04-03T00:47:51;102316.44;;;23.48;100.00
42621;BME280;28252;53.336;-6.298;2023-04-03T00:48:29;102313.56;;;23.50;100.00
42621;BME280;28252;53.336;-6.298;2023-04-03T00:49:06;102312.69;;;23.49;100.00
42621;BME280;28252;53.336;-6.298;2023-04-03T00:49:41;102310.84;;;23.50;100.00
42621;BME280;28252;53.336;-6.298;2023-04-03T00:50:15;102312.69;;;23.49;100.00
42621;BME280;28252;53.336;-6.298;2023-04-03T00:50:48;102313.56;;;23.50;100.00
42621;BME280;28252;53.336;-6.298;2023-04-03T00:51:24;102313.56;;;23.50;100.00
42621;BME280;28252;53.336;-6.298;2023-04-03T00:51:57;102309.97;;;23.49;100.00
42621;BME280;28252;53.336;-6.298;2023-04-03T00:52:31;102314.56;;;23.49;100.00
42621;BME280;28252;53.336;-6.298;2023-04-03T00:53:03;102308.13;;;23.50;100.00
42621;BME280;28252;53.336;-6.298;2023-04-03T00:53:56;102313.56;;;23.50;100.00
42621;BME280;28252;53.336;-6.298;2023-04-03T00:54:29;102314.41;;;23.50;100.00
42621;BME280;28252;53.336;-6.298;2023-04-03T00:55:04;102309.81;;;23.51;100.00
42621;BME280;28252;53.336;-6.298;2023-04-03T00:55:40;102309.81;;;23.51;100.00
42621;BME280;28252;53.336;-6.298;2023-04-03T00:56:17;102314.25;;;23.52;100.00
42621;BME280;28252;53.336;-6.298;2023-04-03T00:56:53;102316.97;;;23.52;100.00
42621;BME280;28252;53.336;-6.298;2023-04-03T00:57:28;102314.41;;;23.50;100.00
42621;BME280;28252;53.336;-6.298;2023-04-03T00:58:06;102316.13;;;23.52;100.00
42621;BME280;28252;53.336;-6.298;2023-04-03T00:58:41;102316.13;;;23.52;100.00
42621;BME280;28252;53.336;-6.298;2023-04-03T00:59:16;102311.53;;;23.52;100.00
42621;BME280;28252;53.336;-6.298;2023-04-03T00:59:55;102311.53;;;23.52;100.00
42621;BME280;28252;53.336;-6.298;2023-04-03T01:00:28;102316.97;;;23.52;100.00
42621;BME280;28252;53.336;-6.298;2023-04-03T01:01:03;102313.41;;;23.52;100.00
42621;BME280;28252;53.336;-6.298;2023-04-03T01:01:43;102315.25;;;23.51;100.00
42621;BME280;28252;53.336;-6.298;2023-04-03T01:02:18;102306.09;;;23.52;100.00
42621;BME280;28252;53.336;-6.298;2023-04-03T01:02:50;102306.94;;;23.53;100.00
42621;BME280;28252;53.336;-6.298;2023-04-03T01:03:21;102306.09;;;23.52;100.00
42621;BME280;28252;53.336;-6.298;2023-04-03T01:03:59;102315.97;;;23.53;100.00
42621;BME280;28252;53.336;-6.298;2023-04-03T01:04:36;102311.38;;;23.54;100.00
42621;BME280;28252;53.336;-6.298;2023-04-03T01:05:14;102304.06;;;23.54;100.00
42621;BME280;28252;53.336;-6.298;2023-04-03T01:05:47;102303.22;;;23.54;100.00
42621;BME280;28252;53.336;-6.298;2023-04-03T01:06:25;102302.38;;;23.53;100.00
42621;BME280;28252;53.336;-6.298;2023-04-03T01:07:06;102309.50;;;23.54;100.00
42621;BME280;28252;53.336;-6.298;2023-04-03T01:07:45;102306.78;;;23.54;100.00
42621;BME280;28252;53.336;-6.298;2023-04-03T01:08:18;102304.06;;;23.54;100.00
42621;BME280;28252;53.336;-6.298;2023-04-03T01:08:54;102306.78;;;23.54;100.00
42621;BME280;28252;53.336;-6.298;2023-04-03T01:09:28;102306.78;;;23.54;100.00
42621;BME280;28252;53.336;-6.298;2023-04-03T01:10:05;102304.06;;;23.54;100.00
42621;BME280;28252;53.336;-6.298;2023-04-03T01:10:39;102298.63;;;23.54;100.00
42621;BME280;28252;53.336;-6.298;2023-04-03T01:11:12;102307.81;;;23.53;100.00
42621;BME280;28252;53.336;-6.298;2023-04-03T01:11:45;102308.50;;;23.55;100.00
42621;BME280;28252;53.336;-6.298;2023-04-03T01:12:20;102309.50;;;23.54;100.00
42621;BME280;28252;53.336;-6.298;2023-04-03T01:12:58;102310.34;;;23.55;100.00
42621;BME280;28252;53.336;-6.298;2023-04-03T01:13:31;102304.06;;;23.54;100.00
42621;BME280;28252;53.336;-6.298;2023-04-03T01:14:03;102309.50;;;23.54;100.00
42621;BME280;28252;53.336;-6.298;2023-04-03T01:14:37;102307.63;;;23.55;100.00
42621;BME280;28252;53.336;-6.298;2023-04-03T01:15:13;102308.66;;;23.54;100.00
42621;BME280;28252;53.336;-6.298;2023-04-03T01:15:46;102311.22;;;23.55;100.00
42621;BME280;28252;53.336;-6.298;2023-04-03T01:16:22;102306.78;;;23.54;100.00
42621;BME280;28252;53.336;-6.298;2023-04-03T01:16:56;102304.06;;;23.54;100.00
42621;BME280;28252;53.336;-6.298;2023-04-03T01:17:34;102308.50;;;23.55;100.00
42621;BME280;28252;53.336;-6.298;2023-04-03T01:18:10;102304.06;;;23.54;100.00
42621;BME280;28252;53.336;-6.298;2023-04-03T01:18:43;102301.34;;;23.54;100.00
42621;BME280;28252;53.336;-6.298;2023-04-03T01:19:16;102304.91;;;23.55;100.00
42621;BME280;28252;53.336;-6.298;2023-04-03T01:19:57;102301.19;;;23.56;100.00
42621;BME280;28252;53.336;-6.298;2023-04-03T01:20:36;102305.78;;;23.55;100.00
42621;BME280;28252;53.336;-6.298;2023-04-03T01:22:37;102302.03;;;23.56;100.00
42621;BME280;28252;53.336;-6.298;2023-04-03T01:25:05;102303.63;;;23.59;100.00
42621;BME280;28252;53.336;-6.298;2023-04-03T01:25:39;102303.47;;;23.60;100.00
42621;BME280;28252;53.336;-6.298;2023-04-03T01:26:13;102301.75;;;23.59;100.00
42621;BME280;28252;53.336;-6.298;2023-04-03T01:26:47;102301.75;;;23.59;100.00
42621;BME280;28252;53.336;-6.298;2023-04-03T01:27:18;102312.63;;;23.59;100.00
42621;BME280;28252;53.336;-6.298;2023-04-03T01:27:50;102303.47;;;23.60;100.00
42621;BME280;28252;53.336;-6.298;2023-04-03T01:28:22;102298.03;;;23.60;100.00
42621;BME280;28252;53.336;-6.298;2023-04-03T01:28:58;102296.31;;;23.59;100.00
42621;BME280;28252;53.336;-6.298;2023-04-03T01:29:34;102299.03;;;23.59;100.00
42621;BME280;28252;53.336;-6.298;2023-04-03T01:30:09;102303.47;;;23.60;100.00
42621;BME280;28252;53.336;-6.298;2023-04-03T01:30:47;102295.47;;;23.59;100.00
42621;BME280;28252;53.336;-6.298;2023-04-03T01:31:25;102293.59;;;23.59;100.00
42621;BME280;28252;53.336;-6.298;2023-04-03T01:32:00;102296.31;;;23.59;100.00
42621;BME280;28252;53.336;-6.298;2023-04-03T01:32:34;102297.16;;;23.60;100.00
42621;BME280;28252;53.336;-6.298;2023-04-03T01:33:08;102301.44;;;23.62;100.00
42621;BME280;28252;53.336;-6.298;2023-04-03T01:33:41;102295.31;;;23.60;100.00
42621;BME280;28252;53.336;-6.298;2023-04-03T01:34:18;102290.72;;;23.61;100.00
42621;BME280;28252;53.336;-6.298;2023-04-03T01:34:49;102297.00;;;23.61;100.00
42621;BME280;28252;53.336;-6.298;2023-04-03T01:35:22;102289.88;;;23.60;100.00
42621;BME280;28252;53.336;-6.298;2023-04-03T01:36:00;102297.16;;;23.60;100.00
42621;BME280;28252;53.336;-6.298;2023-04-03T01:36:31;102298.03;;;23.60;100.00
42621;BME280;28252;53.336;-6.298;2023-04-03T01:37:05;102289.72;;;23.62;100.00
42621;BME280;28252;53.336;-6.298;2023-04-03T01:37:38;102291.56;;;23.61;100.00
42621;BME280;28252;53.336;-6.298;2023-04-03T01:38:12;102296.00;;;23.62;100.00
42621;BME280;28252;53.336;-6.298;2023-04-03T01:38:50;102301.28;;;23.64;100.00
42621;BME280;28252;53.336;-6.298;2023-04-03T01:39:23;102292.28;;;23.63;100.00
42621;BME280;28252;53.336;-6.298;2023-04-03T01:39:57;102288.69;;;23.63;100.00
42621;BME280;28252;53.336;-6.298;2023-04-03T01:40:30;102293.97;;;23.64;100.00
42621;BME280;28252;53.336;-6.298;2023-04-03T01:41:01;102295.69;;;23.65;100.00
42621;BME280;28252;53.336;-6.298;2023-04-03T01:41:35;102294.81;;;23.65;100.00
42621;BME280;28252;53.336;-6.298;2023-04-03T01:42:17;102290.25;;;23.65;100.00
42621;BME280;28252;53.336;-6.298;2023-04-03T01:42:51;102295.69;;;23.65;100.00
42621;BME280;28252;53.336;-6.298;2023-04-03T01:43:25;102289.38;;;23.65;100.00
42621;BME280;28252;53.336;-6.298;2023-04-03T01:43:58;102291.09;;;23.66;100.00
42621;BME280;28252;53.336;-6.298;2023-04-03T01:44:36;102289.38;;;23.65;100.00
42621;BME280;28252;53.336;-6.298;2023-04-03T01:45:10;102285.66;;;23.66;100.00
42621;BME280;28252;53.336;-6.298;2023-04-03T01:45:46;102288.38;;;23.66;100.00
42621;BME280;28252;53.336;-6.298;2023-04-03T01:46:23;102291.94;;;23.66;100.00
42621;BME280;28252;53.336;-6.298;2023-04-03T01:46:58;102291.94;;;23.66;100.00
42621;BME280;28252;53.336;-6.298;2023-04-03T01:47:35;102287.53;;;23.65;100.00
42621;BME280;28252;53.336;-6.298;2023-04-03T01:48:09;102290.25;;;23.65;100.00
42621;BME280;28252;53.336;-6.298;2023-04-03T01:48:40;102285.81;;;23.64;100.00
42621;BME280;28252;53.336;-6.298;2023-04-03T01:49:12;102291.09;;;23.66;100.00
42621;BME280;28252;53.336;-6.298;2023-04-03T01:49:46;102295.69;;;23.65;100.00
42621;BME280;28252;53.336;-6.298;2023-04-03T01:50:26;102294.66;;;23.66;100.00
42621;BME280;28252;53.336;-6.298;2023-04-03T01:50:57;102290.25;;;23.65;100.00
42621;BME280;28252;53.336;-6.298;2023-04-03T01:51:31;102290.25;;;23.65;100.00
42621;BME280;28252;53.336;-6.298;2023-04-03T01:52:07;102292.97;;;23.65;100.00
42621;BME280;28252;53.336;-6.298;2023-04-03T01:52:45;102290.25;;;23.65;100.00
42621;BME280;28252;53.336;-6.298;2023-04-03T01:53:16;102290.25;;;23.65;100.00
42621;BME280;28252;53.336;-6.298;2023-04-03T01:53:49;102290.25;;;23.65;100.00
42621;BME280;28252;53.336;-6.298;2023-04-03T01:54:22;102285.66;;;23.66;100.00
42621;BME280;28252;53.336;-6.298;2023-04-03T01:54:56;102291.09;;;23.66;100.00
42621;BME280;28252;53.336;-6.298;2023-04-03T01:55:29;102290.25;;;23.65;100.00
42621;BME280;28252;53.336;-6.298;2023-04-03T01:56:03;102283.09;;;23.64;100.00
42621;BME280;28252;53.336;-6.298;2023-04-03T01:56:36;102285.66;;;23.66;100.00
42621;BME280;28252;53.336;-6.298;2023-04-03T01:57:09;102291.94;;;23.66;100.00
42621;BME280;28252;53.336;-6.298;2023-04-03T01:57:41;102284.81;;;23.65;100.00
42621;BME280;28252;53.336;-6.298;2023-04-03T01:58:21;102283.09;;;23.64;100.00
42621;BME280;28252;53.336;-6.298;2023-04-03T01:58:56;102277.66;;;23.64;100.00
42621;BME280;28252;53.336;-6.298;2023-04-03T01:59:29;102291.94;;;23.66;100.00
42621;BME280;28252;53.336;-6.298;2023-04-03T02:00:10;102285.66;;;23.66;100.00
42621;BME280;28252;53.336;-6.298;2023-04-03T02:00:44;102284.81;;;23.65;100.00
42621;BME280;28252;53.336;-6.298;2023-04-03T02:01:17;102282.78;;;23.67;100.00
42621;BME280;28252;53.336;-6.298;2023-04-03T02:01:52;102281.06;;;23.66;100.00
42621;BME280;28252;53.336;-6.298;2023-04-03T02:02:29;102272.91;;;23.66;100.00
42621;BME280;28252;53.336;-6.298;2023-04-03T02:03:02;102283.78;;;23.66;100.00
42621;BME280;28252;53.336;-6.298;2023-04-03T02:03:36;102282.94;;;23.66;100.00
42621;BME280;28252;53.336;-6.298;2023-04-03T02:04:07;102278.34;;;23.66;100.00
42621;BME280;28252;53.336;-6.298;2023-04-03T02:04:38;102267.47;;;23.66;100.00
42621;BME280;28252;53.336;-6.298;2023-04-03T02:05:09;102275.63;;;23.66;100.00
42621;BME280;28252;53.336;-6.298;2023-04-03T02:05:43;102272.06;;;23.66;100.00
42621;BME280;28252;53.336;-6.298;2023-04-03T02:06:16;102270.19;;;23.66;100.00
42621;BME280;28252;53.336;-6.298;2023-04-03T02:06:47;102273.94;;;23.65;100.00
42621;BME280;28252;53.336;-6.298;2023-04-03T02:07:20;102272.22;;;23.64;100.00
42621;BME280;28252;53.336;-6.298;2023-04-03T02:07:56;102273.06;;;23.65;100.00
42621;BME280;28252;53.336;-6.298;2023-04-03T02:08:31;102265.78;;;23.65;100.00
42621;BME280;28252;53.336;-6.298;2023-04-03T02:09:02;102263.06;;;23.65;100.00
42621;BME280;28252;53.336;-6.298;2023-04-03T02:09:34;102273.25;;;23.63;100.00
42621;BME280;28252;53.336;-6.298;2023-04-03T02:10:10;102267.81;;;23.63;100.00
42621;BME280;28252;53.336;-6.298;2023-04-03T02:10:44;102277.66;;;23.64;100.00
42621;BME280;28252;53.336;-6.298;2023-04-03T02:11:18;102275.97;;;23.63;100.00
42621;BME280;28252;53.336;-6.298;2023-04-03T02:11:52;102279.53;;;23.64;100.00
42621;BME280;28252;53.336;-6.298;2023-04-03T02:12:23;102277.66;;;23.64;100.00
42621;BME280;28252;53.336;-6.298;2023-04-03T02:12:58;102270.53;;;23.63;100.00
42621;BME280;28252;53.336;-6.298;2023-04-03T02:13:32;102276.81;;;23.64;100.00
42621;BME280;28252;53.336;-6.298;2023-04-03T02:14:04;102272.22;;;23.64;100.00
42621;BME280;28252;53.336;-6.298;2023-04-03T02:14:37;102276.97;;;23.62;100.00
42621;BME280;28252;53.336;-6.298;2023-04-03T02:15:14;102273.41;;;23.62;100.00
42621;BME280;28252;53.336;-6.298;2023-04-03T02:15:50;102277.81;;;23.63;100.00
42621;BME280;28252;53.336;-6.298;2023-04-03T02:16:23;102274.25;;;23.62;100.00
42621;BME280;28252;53.336;-6.298;2023-04-03T02:17:01;102269.78;;;23.61;100.00
42621;BME280;28252;53.336;-6.298;2023-04-03T02:17:39;102277.97;;;23.61;100.00
42621;BME280;28252;53.336;-6.298;2023-04-03T02:18:13;102276.97;;;23.62;100.00
42621;BME280;28252;53.336;-6.298;2023-04-03T02:18:51;102272.50;;;23.61;100.00
42621;BME280;28252;53.336;-6.298;2023-04-03T02:19:24;102268.09;;;23.60;100.00
42621;BME280;28252;53.336;-6.298;2023-04-03T02:19:58;102276.25;;;23.60;100.00
42621;BME280;28252;53.336;-6.298;2023-04-03T02:20:32;102271.97;;;23.58;100.00
42621;BME280;28252;53.336;-6.298;2023-04-03T02:21:05;102269.94;;;23.60;100.00
42621;BME280;28252;53.336;-6.298;2023-04-03T02:21:39;102266.38;;;23.59;100.00
42621;BME280;28252;53.336;-6.298;2023-04-03T02:22:10;102264.69;;;23.58;100.00
42621;BME280;28252;53.336;-6.298;2023-04-03T02:22:44;102274.53;;;23.59;100.00
42621;BME280;28252;53.336;-6.298;2023-04-03T02:23:25;102270.81;;;23.60;100.00
42621;BME280;28252;53.336;-6.298;2023-04-03T02:23:59;102265.38;;;23.60;100.00
42621;BME280;28252;53.336;-6.298;2023-04-03T02:24:32;102270.81;;;23.60;100.00
42621;BME280;28252;53.336;-6.298;2023-04-03T02:25:05;102269.09;;;23.59;100.00
42621;BME280;28252;53.336;-6.298;2023-04-03T02:25:43;102270.81;;;23.60;100.00
42621;BME280;28252;53.336;-6.298;2023-04-03T02:26:16;102269.09;;;23.59;100.00
42621;BME280;28252;53.336;-6.298;2023-04-03T02:26:52;102270.81;;;23.60;100.00
42621;BME280;28252;53.336;-6.298;2023-04-03T02:27:25;102265.22;;;23.62;100.00
42621;BME280;28252;53.336;-6.298;2023-04-03T02:28:01;102263.50;;;23.61;100.00
42621;BME280;28252;53.336;-6.298;2023-04-03T02:28:39;102257.91;;;23.62;100.00
42621;BME280;28252;53.336;-6.298;2023-04-03T02:29:13;102263.34;;;23.62;100.00
42621;BME280;28252;53.336;-6.298;2023-04-03T02:29:49;102257.22;;;23.60;100.00
42621;BME280;28252;53.336;-6.298;2023-04-03T02:30:25;102260.63;;;23.62;100.00
42621;BME280;28252;53.336;-6.298;2023-04-03T02:31:02;102256.19;;;23.61;100.00
42621;BME280;28252;53.336;-6.298;2023-04-03T02:31:38;102253.47;;;23.61;100.00
42621;BME280;28252;53.336;-6.298;2023-04-03T02:32:12;102254.50;;;23.60;100.00
42621;BME280;28252;53.336;-6.298;2023-04-03T02:32:46;102254.50;;;23.60;100.00
42621;BME280;28252;53.336;-6.298;2023-04-03T02:33:21;102253.63;;;23.60;100.00
42621;BME280;28252;53.336;-6.298;2023-04-03T02:33:54;102254.50;;;23.60;100.00
42621;BME280;28252;53.336;-6.298;2023-04-03T02:34:33;102249.06;;;23.60;100.00
42621;BME280;28252;53.336;-6.298;2023-04-03T02:35:08;102254.50;;;23.60;100.00
42621;BME280;28252;53.336;-6.298;2023-04-03T02:35:45;102244.47;;;23.61;100.00
42621;BME280;28252;53.336;-6.298;2023-04-03T02:36:26;102250.75;;;23.61;100.00
42621;BME280;28252;53.336;-6.298;2023-04-03T02:37:01;102247.03;;;23.62;100.00
42621;BME280;28252;53.336;-6.298;2023-04-03T02:37:33;102250.75;;;23.61;100.00
42621;BME280;28252;53.336;-6.298;2023-04-03T02:38:08;102251.63;;;23.62;100.00
42621;BME280;28252;53.336;-6.298;2023-04-03T02:38:41;102248.03;;;23.61;100.00
42621;BME280;28252;53.336;-6.298;2023-04-03T02:39:14;102246.19;;;23.62;100.00
42621;BME280;28252;53.336;-6.298;2023-04-03T02:39:49;102250.75;;;23.61;100.00
42621;BME280;28252;53.336;-6.298;2023-04-03T02:40:23;102244.47;;;23.61;100.00
42621;BME280;28252;53.336;-6.298;2023-04-03T02:41:00;102250.75;;;23.61;100.00
42621;BME280;28252;53.336;-6.298;2023-04-03T02:41:38;102246.34;;;23.60;100.00
42621;BME280;28252;53.336;-6.298;2023-04-03T02:42:16;102253.47;;;23.61;100.00
42621;BME280;28252;53.336;-6.298;2023-04-03T02:42:47;102244.31;;;23.62;100.00
42621;BME280;28252;53.336;-6.298;2023-04-03T02:43:18;102250.75;;;23.61;100.00
42621;BME280;28252;53.336;-6.298;2023-04-03T02:43:49;102255.19;;;23.62;100.00
42621;BME280;28252;53.336;-6.298;2023-04-03T02:44:22;102244.31;;;23.62;100.00
42621;BME280;28252;53.336;-6.298;2023-04-03T02:44:59;102245.31;;;23.61;100.00
42621;BME280;28252;53.336;-6.298;2023-04-03T02:45:33;102248.75;;;23.63;100.00
42621;BME280;28252;53.336;-6.298;2023-04-03T02:46:09;102239.88;;;23.61;100.00
42621;BME280;28252;53.336;-6.298;2023-04-03T02:48:03;102238.88;;;23.62;100.00
42621;BME280;28252;53.336;-6.298;2023-04-03T02:48:34;102238.19;;;23.60;100.00
42621;BME280;28252;53.336;-6.298;2023-04-03T02:49:07;102238.88;;;23.62;100.00
42621;BME280;28252;53.336;-6.298;2023-04-03T02:49:41;102242.28;;;23.64;100.00
42621;BME280;28252;53.336;-6.298;2023-04-03T02:50:21;102235.16;;;23.63;100.00
42621;BME280;28252;53.336;-6.298;2023-04-03T02:50:54;102244.16;;;23.64;100.00
42621;BME280;28252;53.336;-6.298;2023-04-03T02:51:30;102238.72;;;23.64;100.00
42621;BME280;28252;53.336;-6.298;2023-04-03T02:52:06;102232.44;;;23.63;100.00
42621;BME280;28252;53.336;-6.298;2023-04-03T02:52:41;102240.59;;;23.63;100.00
42621;BME280;28252;53.336;-6.298;2023-04-03T02:53:14;102234.28;;;23.63;100.00
42621;BME280;28252;53.336;-6.298;2023-04-03T02:53:48;102237.88;;;23.63;100.00
42621;BME280;28252;53.336;-6.298;2023-04-03T02:54:29;102239.72;;;23.63;100.00
42621;BME280;28252;53.336;-6.298;2023-04-03T02:55:06;102242.44;;;23.63;100.00
42621;BME280;28252;53.336;-6.298;2023-04-03T02:55:40;102234.28;;;23.63;100.00
42621;BME280;28252;53.336;-6.298;2023-04-03T02:56:13;102236.16;;;23.62;100.00
42621;BME280;28252;53.336;-6.298;2023-04-03T02:56:46;102232.44;;;23.63;100.00
42621;BME280;28252;53.336;-6.298;2023-04-03T02:57:19;102230.72;;;23.62;100.00
42621;BME280;28252;53.336;-6.298;2023-04-03T02:57:55;102234.13;;;23.64;100.00
42621;BME280;28252;53.336;-6.298;2023-04-03T02:58:28;102232.44;;;23.63;100.00
42621;BME280;28252;53.336;-6.298;2023-04-03T02:59:06;102228.69;;;23.64;100.00
42621;BME280;28252;53.336;-6.298;2023-04-03T02:59:41;102229.53;;;23.65;100.00
42621;BME280;28252;53.336;-6.298;2023-04-03T03:00:18;102224.28;;;23.63;100.00
42621;BME280;28252;53.336;-6.298;2023-04-03T03:00:49;102226.81;;;23.65;100.00
42621;BME280;28252;53.336;-6.298;2023-04-03T03:01:20;102233.13;;;23.65;100.00
42621;BME280;28252;53.336;-6.298;2023-04-03T03:01:53;102230.41;;;23.65;100.00
42621;BME280;28252;53.336;-6.298;2023-04-03T03:02:26;102224.97;;;23.65;100.00